sensor_id;sensor_type;location;lat;lon;timestamp;P1;durP1;ratioP1;P2;durP2;ratioP2
9722;SDS011;4900;49.306;8.500;2023-04-07T00:02:23;8.67;;;7.33;;
9722;SDS011;4900;49.306;8.500;2023-04-07T00:04:49;8.53;;;6.60;;
9722;SDS011;4900;49.306;8.500;2023-04-07T00:07:15;8.73;;;7.50;;
9722;SDS011;4900;49.306;8.500;2023-04-07T00:09:40;9.80;;;7.40;;
9722;SDS011;4900;49.306;8.500;2023-04-07T00:12:06;8.13;;;7.17;;
9722;SDS011;4900;49.306;8.500;2023-04-07T00:14:31;10.50;;;8.30;;
9722;SDS011;4900;49.306;8.500;2023-04-07T00:16:57;9.63;;;7.70;;
9722;SDS011;4900;49.306;8.500;2023-04-07T00:19:23;8.47;;;7.40;;
9722;SDS011;4900;49.306;8.500;2023-04-07T00:21:49;9.00;;;7.80;;
9722;SDS011;4900;49.306;8.500;2023-04-07T00:24:17;9.10;;;7.67;;
9722;SDS011;4900;49.306;8.500;2023-04-07T00:26:43;10.13;;;7.70;;
9722;SDS011;4900;49.306;8.500;2023-04-07T00:29:08;9.73;;;7.93;;
9722;SDS011;4900;49.306;8.500;2023-04-07T00:31:33;9.93;;;7.83;;
9722;SDS011;4900;49.306;8.500;2023-04-07T00:33:59;9.20;;;8.10;;
9722;SDS011;4900;49.306;8.500;2023-04-07T00:36:24;8.47;;;7.57;;
9722;SDS011;4900;49.306;8.500;2023-04-07T00:38:51;9.67;;;8.03;;
9722;SDS011;4900;49.306;8.500;2023-04-07T00:41:16;10.10;;;8.37;;
9722;SDS011;4900;49.306;8.500;2023-04-07T00:43:41;9.57;;;7.93;;
9722;SDS011;4900;49.306;8.500;2023-04-07T00:46:07;9.30;;;7.73;;
9722;SDS011;4900;49.306;8.500;2023-04-07T00:48:33;9.47;;;7.90;;
9722;SDS011;4900;49.306;8.500;2023-04-07T00:50:58;10.03;;;8.23;;
9722;SDS011;4900;49.306;8.500;2023-04-07T00:53:24;9.80;;;7.77;;
9722;SDS011;4900;49.306;8.500;2023-04-07T00:55:49;10.67;;;8.40;;
9722;SDS011;4900;49.306;8.500;2023-04-07T00:58:15;10.07;;;8.27;;
9722;SDS011;4900;49.306;8.500;2023-04-07T01:00:42;8.17;;;7.23;;
9722;SDS011;4900;49.306;8.500;2023-04-07T01:03:45;9.30;;;7.47;;
9722;SDS011;4900;49.306;8.500;2023-04-07T01:06:16;9.90;;;8.10;;
9722;SDS011;4900;49.306;8.500;2023-04-07T01:11:26;13.13;;;8.73;;
9722;SDS011;4900;49.306;8.500;2023-04-07T01:13:57;10.20;;;8.80;;
9722;SDS011;4900;49.306;8.500;2023-04-07T01:16:31;10.57;;;8.67;;
9722;SDS011;4900;49.306;8.500;2023-04-07T01:19:14;14.67;;;8.60;;
9722;SDS011;4900;49.306;8.500;2023-04-07T01:21:56;10.80;;;8.40;;
9722;SDS011;4900;49.306;8.500;2023-04-07T01:27:13;10.43;;;8.23;;
9722;SDS011;4900;49.306;8.500;2023-04-07T01:30:00;9.63;;;8.50;;
9722;SDS011;4900;49.306;8.500;2023-04-07T01:32:27;11.23;;;9.33;;
9722;SDS011;4900;49.306;8.500;2023-04-07T01:34:54;11.07;;;9.13;;
9722;SDS011;4900;49.306;8.500;2023-04-07T01:37:22;11.07;;;9.07;;
9722;SDS011;4900;49.306;8.500;2023-04-07T01:39:50;10.40;;;8.80;;
9722;SDS011;4900;49.306;8.500;2023-04-07T01:42:16;9.73;;;7.80;;
9722;SDS011;4900;49.306;8.500;2023-04-07T01:44:43;10.50;;;8.33;;
9722;SDS011;4900;49.306;8.500;2023-04-07T01:47:09;9.00;;;7.60;;
9722;SDS011;4900;49.306;8.500;2023-04-07T01:49:36;9.57;;;8.07;;
9722;SDS011;4900;49.306;8.500;2023-04-07T01:52:02;9.00;;;7.60;;
9722;SDS011;4900;49.306;8.500;2023-04-07T01:54:29;9.03;;;7.90;;
9722;SDS011;4900;49.306;8.500;2023-04-07T01:56:55;10.90;;;8.33;;
9722;SDS011;4900;49.306;8.500;2023-04-07T01:59:21;10.07;;;7.90;;
9722;SDS011;4900;49.306;8.500;2023-04-07T02:01:46;10.10;;;8.57;;
9722;SDS011;4900;49.306;8.500;2023-04-07T02:04:30;11.17;;;8.93;;
9722;SDS011;4900;49.306;8.500;2023-04-07T02:07:02;12.30;;;8.47;;
9722;SDS011;4900;49.306;8.500;2023-04-07T02:09:33;10.17;;;8.40;;
9722;SDS011;4900;49.306;8.500;2023-04-07T02:12:03;10.07;;;7.93;;
9722;SDS011;4900;49.306;8.500;2023-04-07T02:14:31;11.10;;;8.53;;
9722;SDS011;4900;49.306;8.500;2023-04-07T02:16:58;10.80;;;8.27;;
9722;SDS011;4900;49.306;8.500;2023-04-07T02:19:25;11.50;;;8.93;;
9722;SDS011;4900;49.306;8.500;2023-04-07T02:21:51;11.17;;;8.57;;
9722;SDS011;4900;49.306;8.500;2023-04-07T02:24:19;11.47;;;9.60;;
9722;SDS011;4900;49.306;8.500;2023-04-07T02:26:45;12.33;;;9.63;;
9722;SDS011;4900;49.306;8.500;2023-04-07T02:29:11;12.10;;;9.43;;
9722;SDS011;4900;49.306;8.500;2023-04-07T02:31:37;13.17;;;9.60;;
9722;SDS011;4900;49.306;8.500;2023-04-07T02:34:03;11.17;;;8.80;;
9722;SDS011;4900;49.306;8.500;2023-04-07T02:36:28;11.83;;;9.80;;
9722;SDS011;4900;49.306;8.500;2023-04-07T02:38:54;10.90;;;8.67;;
9722;SDS011;4900;49.306;8.500;2023-04-07T02:41:19;13.13;;;9.80;;
9722;SDS011;4900;49.306;8.500;2023-04-07T02:43:45;10.53;;;8.87;;
9722;SDS011;4900;49.306;8.500;2023-04-07T02:46:11;11.37;;;8.33;;
9722;SDS011;4900;49.306;8.500;2023-04-07T02:48:36;12.10;;;9.30;;
9722;SDS011;4900;49.306;8.500;2023-04-07T02:51:02;9.93;;;7.93;;
9722;SDS011;4900;49.306;8.500;2023-04-07T02:53:27;9.67;;;8.00;;
9722;SDS011;4900;49.306;8.500;2023-04-07T02:55:53;10.13;;;8.20;;
9722;SDS011;4900;49.306;8.500;2023-04-07T02:58:18;10.87;;;9.10;;
9722;SDS011;4900;49.306;8.500;2023-04-07T03:00:43;11.70;;;9.47;;
9722;SDS011;4900;49.306;8.500;2023-04-07T03:03:09;12.27;;;9.50;;
9722;SDS011;4900;49.306;8.500;2023-04-07T03:05:34;13.60;;;9.67;;
9722;SDS011;4900;49.306;8.500;2023-04-07T03:08:00;11.07;;;9.37;;
9722;SDS011;4900;49.306;8.500;2023-04-07T03:10:25;12.17;;;8.37;;
9722;SDS011;4900;49.306;8.500;2023-04-07T03:12:51;11.30;;;8.60;;
9722;SDS011;4900;49.306;8.500;2023-04-07T03:15:16;11.07;;;9.40;;
9722;SDS011;4900;49.306;8.500;2023-04-07T03:17:41;11.23;;;9.57;;
9722;SDS011;4900;49.306;8.500;2023-04-07T03:20:07;12.40;;;9.37;;
9722;SDS011;4900;49.306;8.500;2023-04-07T03:22:33;11.70;;;8.93;;
9722;SDS011;4900;49.306;8.500;2023-04-07T03:24:58;12.97;;;9.53;;
9722;SDS011;4900;49.306;8.500;2023-04-07T03:27:24;12.77;;;9.57;;
9722;SDS011;4900;49.306;8.500;2023-04-07T03:29:49;10.93;;;8.90;;
9722;SDS011;4900;49.306;8.500;2023-04-07T03:32:15;12.23;;;9.60;;
9722;SDS011;4900;49.306;8.500;2023-04-07T03:34:40;12.47;;;9.20;;
9722;SDS011;4900;49.306;8.500;2023-04-07T03:37:06;11.50;;;9.67;;
9722;SDS011;4900;49.306;8.500;2023-04-07T03:39:32;13.17;;;9.67;;
9722;SDS011;4900;49.306;8.500;2023-04-07T03:41:57;12.77;;;10.03;;
9722;SDS011;4900;49.306;8.500;2023-04-07T03:44:22;12.40;;;9.10;;
9722;SDS011;4900;49.306;8.500;2023-04-07T03:46:48;12.23;;;9.23;;
9722;SDS011;4900;49.306;8.500;2023-04-07T03:49:14;11.73;;;8.97;;
9722;SDS011;4900;49.306;8.500;2023-04-07T03:51:40;11.13;;;8.50;;
9722;SDS011;4900;49.306;8.500;2023-04-07T03:54:05;11.63;;;9.17;;
9722;SDS011;4900;49.306;8.500;2023-04-07T03:56:31;11.67;;;9.40;;
9722;SDS011;4900;49.306;8.500;2023-04-07T03:58:56;11.13;;;8.70;;
9722;SDS011;4900;49.306;8.500;2023-04-07T04:01:22;10.27;;;8.13;;
9722;SDS011;4900;49.306;8.500;2023-04-07T04:03:48;11.17;;;8.73;;
9722;SDS011;4900;49.306;8.500;2023-04-07T04:06:14;11.60;;;9.83;;
9722;SDS011;4900;49.306;8.500;2023-04-07T04:08:39;11.87;;;9.10;;
9722;SDS011;4900;49.306;8.500;2023-04-07T04:11:04;13.20;;;9.57;;
9722;SDS011;4900;49.306;8.500;2023-04-07T04:13:30;12.33;;;9.97;;
9722;SDS011;4900;49.306;8.500;2023-04-07T04:15:56;13.43;;;10.00;;
9722;SDS011;4900;49.306;8.500;2023-04-07T04:18:21;13.10;;;10.27;;
9722;SDS011;4900;49.306;8.500;2023-04-07T04:20:47;10.90;;;8.70;;
9722;SDS011;4900;49.306;8.500;2023-04-07T04:23:13;12.90;;;9.83;;
9722;SDS011;4900;49.306;8.500;2023-04-07T04:25:39;10.70;;;8.90;;
9722;SDS011;4900;49.306;8.500;2023-04-07T04:28:05;12.23;;;9.07;;
9722;SDS011;4900;49.306;8.500;2023-04-07T04:30:30;11.77;;;9.30;;
9722;SDS011;4900;49.306;8.500;2023-04-07T04:32:56;11.13;;;8.93;;
9722;SDS011;4900;49.306;8.500;2023-04-07T04:35:21;11.67;;;9.30;;
9722;SDS011;4900;49.306;8.500;2023-04-07T04:37:47;12.17;;;10.07;;
9722;SDS011;4900;49.306;8.500;2023-04-07T04:40:13;11.30;;;8.70;;
9722;SDS011;4900;49.306;8.500;2023-04-07T04:42:38;9.73;;;8.00;;
9722;SDS011;4900;49.306;8.500;2023-04-07T04:45:04;9.40;;;8.07;;
9722;SDS011;4900;49.306;8.500;2023-04-07T04:47:30;13.03;;;9.83;;
9722;SDS011;4900;49.306;8.500;2023-04-07T04:49:56;12.73;;;10.40;;
9722;SDS011;4900;49.306;8.500;2023-04-07T04:52:21;13.23;;;10.23;;
9722;SDS011;4900;49.306;8.500;2023-04-07T04:54:47;12.83;;;9.00;;
9722;SDS011;4900;49.306;8.500;2023-04-07T04:57:12;12.37;;;9.40;;
9722;SDS011;4900;49.306;8.500;2023-04-07T04:59:38;10.63;;;8.57;;
9722;SDS011;4900;49.306;8.500;2023-04-07T05:02:04;12.77;;;9.80;;
9722;SDS011;4900;49.306;8.500;2023-04-07T05:04:29;11.80;;;9.83;;
9722;SDS011;4900;49.306;8.500;2023-04-07T05:06:55;14.67;;;10.80;;
9722;SDS011;4900;49.306;8.500;2023-04-07T05:09:21;12.47;;;9.93;;
9722;SDS011;4900;49.306;8.500;2023-04-07T05:11:46;11.47;;;9.23;;
9722;SDS011;4900;49.306;8.500;2023-04-07T05:14:12;15.37;;;11.60;;
9722;SDS011;4900;49.306;8.500;2023-04-07T05:16:37;16.17;;;11.60;;
9722;SDS011;4900;49.306;8.500;2023-04-07T05:19:02;12.10;;;9.30;;
9722;SDS011;4900;49.306;8.500;2023-04-07T05:21:28;11.13;;;9.33;;
9722;SDS011;4900;49.306;8.500;2023-04-07T05:23:53;13.43;;;10.97;;
9722;SDS011;4900;49.306;8.500;2023-04-07T05:26:19;14.17;;;11.30;;
9722;SDS011;4900;49.306;8.500;2023-04-07T05:28:45;13.10;;;9.67;;
9722;SDS011;4900;49.306;8.500;2023-04-07T05:31:11;15.07;;;11.80;;
9722;SDS011;4900;49.306;8.500;2023-04-07T05:33:36;14.27;;;10.60;;
9722;SDS011;4900;49.306;8.500;2023-04-07T05:36:02;14.47;;;11.30;;
9722;SDS011;4900;49.306;8.500;2023-04-07T05:38:27;16.57;;;11.20;;
9722;SDS011;4900;49.306;8.500;2023-04-07T05:40:53;15.23;;;11.93;;
9722;SDS011;4900;49.306;8.500;2023-04-07T05:43:18;13.17;;;10.70;;
9722;SDS011;4900;49.306;8.500;2023-04-07T05:45:43;14.50;;;11.23;;
9722;SDS011;4900;49.306;8.500;2023-04-07T05:48:09;16.20;;;11.73;;
9722;SDS011;4900;49.306;8.500;2023-04-07T05:50:34;16.30;;;11.97;;
9722;SDS011;4900;49.306;8.500;2023-04-07T05:53:00;15.60;;;11.27;;
9722;SDS011;4900;49.306;8.500;2023-04-07T05:55:25;15.23;;;11.97;;
9722;SDS011;4900;49.306;8.500;2023-04-07T05:57:51;14.97;;;11.77;;
9722;SDS011;4900;49.306;8.500;2023-04-07T06:00:17;17.50;;;12.97;;
9722;SDS011;4900;49.306;8.500;2023-04-07T06:02:43;15.43;;;12.53;;
9722;SDS011;4900;49.306;8.500;2023-04-07T06:05:09;15.83;;;12.87;;
9722;SDS011;4900;49.306;8.500;2023-04-07T06:07:35;15.80;;;11.80;;
9722;SDS011;4900;49.306;8.500;2023-04-07T06:10:00;14.17;;;11.63;;
9722;SDS011;4900;49.306;8.500;2023-04-07T06:12:26;14.67;;;11.40;;
9722;SDS011;4900;49.306;8.500;2023-04-07T06:14:52;15.17;;;11.97;;
9722;SDS011;4900;49.306;8.500;2023-04-07T06:17:18;14.83;;;11.27;;
9722;SDS011;4900;49.306;8.500;2023-04-07T06:19:44;11.67;;;10.43;;
9722;SDS011;4900;49.306;8.500;2023-04-07T06:22:09;13.07;;;10.83;;
9722;SDS011;4900;49.306;8.500;2023-04-07T06:24:35;12.07;;;10.30;;
9722;SDS011;4900;49.306;8.500;2023-04-07T06:27:01;13.00;;;10.30;;
9722;SDS011;4900;49.306;8.500;2023-04-07T06:29:27;13.03;;;10.17;;
9722;SDS011;4900;49.306;8.500;2023-04-07T06:31:54;12.80;;;10.13;;
9722;SDS011;4900;49.306;8.500;2023-04-07T06:34:20;12.13;;;9.57;;
9722;SDS011;4900;49.306;8.500;2023-04-07T06:36:45;14.90;;;10.87;;
9722;SDS011;4900;49.306;8.500;2023-04-07T06:39:11;14.60;;;11.37;;
9722;SDS011;4900;49.306;8.500;2023-04-07T06:41:36;19.80;;;14.40;;
9722;SDS011;4900;49.306;8.500;2023-04-07T06:44:03;15.37;;;12.03;;
9722;SDS011;4900;49.306;8.500;2023-04-07T06:46:29;12.40;;;10.23;;
9722;SDS011;4900;49.306;8.500;2023-04-07T06:48:54;12.30;;;10.47;;
9722;SDS011;4900;49.306;8.500;2023-04-07T06:51:20;11.43;;;9.33;;
9722;SDS011;4900;49.306;8.500;2023-04-07T06:53:46;12.70;;;9.97;;
9722;SDS011;4900;49.306;8.500;2023-04-07T06:56:12;11.93;;;8.93;;
9722;SDS011;4900;49.306;8.500;2023-04-07T06:58:38;10.68;;;9.05;;
9722;SDS011;4900;49.306;8.500;2023-04-07T07:01:04;10.17;;;8.97;;
9722;SDS011;4900;49.306;8.500;2023-04-07T07:03:30;9.95;;;8.23;;
9722;SDS011;4900;49.306;8.500;2023-04-07T07:05:57;9.30;;;7.60;;
9722;SDS011;4900;49.306;8.500;2023-04-07T07:08:23;10.63;;;8.50;;
9722;SDS011;4900;49.306;8.500;2023-04-07T07:10:50;10.68;;;8.73;;
9722;SDS011;4900;49.306;8.500;2023-04-07T07:13:15;10.30;;;8.32;;
9722;SDS011;4900;49.306;8.500;2023-04-07T07:15:40;8.90;;;7.75;;
9722;SDS011;4900;49.306;8.500;2023-04-07T07:18:06;8.70;;;7.80;;
9722;SDS011;4900;49.306;8.500;2023-04-07T07:20:31;9.00;;;8.10;;
9722;SDS011;4900;49.306;8.500;2023-04-07T07:22:57;10.15;;;8.50;;
9722;SDS011;4900;49.306;8.500;2023-04-07T07:25:23;8.48;;;7.40;;
9722;SDS011;4900;49.306;8.500;2023-04-07T07:27:51;7.90;;;7.10;;
9722;SDS011;4900;49.306;8.500;2023-04-07T07:30:19;8.18;;;7.10;;
9722;SDS011;4900;49.306;8.500;2023-04-07T07:32:46;8.35;;;7.30;;
9722;SDS011;4900;49.306;8.500;2023-04-07T07:35:12;8.75;;;7.57;;
9722;SDS011;4900;49.306;8.500;2023-04-07T07:37:38;7.93;;;7.20;;
9722;SDS011;4900;49.306;8.500;2023-04-07T07:40:04;7.15;;;6.45;;
9722;SDS011;4900;49.306;8.500;2023-04-07T07:42:30;9.50;;;7.55;;
9722;SDS011;4900;49.306;8.500;2023-04-07T07:44:56;7.10;;;6.40;;
9722;SDS011;4900;49.306;8.500;2023-04-07T07:47:23;7.80;;;7.00;;
9722;SDS011;4900;49.306;8.500;2023-04-07T07:49:49;8.10;;;6.63;;
9722;SDS011;4900;49.306;8.500;2023-04-07T07:52:15;9.25;;;8.35;;
9722;SDS011;4900;49.306;8.500;2023-04-07T07:54:40;7.93;;;7.05;;
9722;SDS011;4900;49.306;8.500;2023-04-07T07:57:06;8.05;;;7.25;;
9722;SDS011;4900;49.306;8.500;2023-04-07T07:59:31;9.15;;;6.90;;
9722;SDS011;4900;49.306;8.500;2023-04-07T08:01:57;7.60;;;6.03;;
9722;SDS011;4900;49.306;8.500;2023-04-07T08:04:23;7.30;;;6.30;;
9722;SDS011;4900;49.306;8.500;2023-04-07T08:06:49;6.95;;;6.25;;
9722;SDS011;4900;49.306;8.500;2023-04-07T08:09:16;7.97;;;5.43;;
9722;SDS011;4900;49.306;8.500;2023-04-07T08:11:42;7.32;;;5.70;;
9722;SDS011;4900;49.306;8.500;2023-04-07T08:14:07;6.53;;;5.18;;
9722;SDS011;4900;49.306;8.500;2023-04-07T08:16:33;6.18;;;4.88;;
9722;SDS011;4900;49.306;8.500;2023-04-07T08:18:58;5.82;;;5.22;;
9722;SDS011;4900;49.306;8.500;2023-04-07T08:21:24;7.28;;;6.47;;
9722;SDS011;4900;49.306;8.500;2023-04-07T08:23:52;6.70;;;6.05;;
9722;SDS011;4900;49.306;8.500;2023-04-07T08:26:19;6.60;;;5.18;;
9722;SDS011;4900;49.306;8.500;2023-04-07T08:28:45;7.60;;;6.80;;
9722;SDS011;4900;49.306;8.500;2023-04-07T08:31:11;7.70;;;5.30;;
9722;SDS011;4900;49.306;8.500;2023-04-07T08:33:37;5.78;;;4.70;;
9722;SDS011;4900;49.306;8.500;2023-04-07T08:36:03;7.68;;;6.20;;
9722;SDS011;4900;49.306;8.500;2023-04-07T08:38:29;8.65;;;5.50;;
9722;SDS011;4900;49.306;8.500;2023-04-07T08:41:09;5.72;;;5.05;;
9722;SDS011;4900;49.306;8.500;2023-04-07T08:43:37;6.00;;;4.30;;
9722;SDS011;4900;49.306;8.500;2023-04-07T08:46:03;5.88;;;4.53;;
9722;SDS011;4900;49.306;8.500;2023-04-07T08:48:30;6.63;;;4.43;;
9722;SDS011;4900;49.306;8.500;2023-04-07T08:51:03;5.32;;;4.68;;
9722;SDS011;4900;49.306;8.500;2023-04-07T08:53:34;5.97;;;4.50;;
9722;SDS011;4900;49.306;8.500;2023-04-07T08:56:04;4.93;;;3.85;;
9722;SDS011;4900;49.306;8.500;2023-04-07T08:58:31;5.15;;;3.85;;
9722;SDS011;4900;49.306;8.500;2023-04-07T09:00:57;5.80;;;4.18;;
9722;SDS011;4900;49.306;8.500;2023-04-07T09:03:23;4.55;;;3.90;;
9722;SDS011;4900;49.306;8.500;2023-04-07T09:05:50;6.10;;;5.05;;
9722;SDS011;4900;49.306;8.500;2023-04-07T09:08:16;5.55;;;4.65;;
9722;SDS011;4900;49.306;8.500;2023-04-07T09:10:41;5.68;;;3.80;;
9722;SDS011;4900;49.306;8.500;2023-04-07T09:13:07;4.80;;;4.05;;
9722;SDS011;4900;49.306;8.500;2023-04-07T09:15:32;5.20;;;4.30;;
9722;SDS011;4900;49.306;8.500;2023-04-07T09:17:58;6.25;;;4.85;;
9722;SDS011;4900;49.306;8.500;2023-04-07T09:20:24;8.48;;;4.93;;
9722;SDS011;4900;49.306;8.500;2023-04-07T09:22:49;5.50;;;4.80;;
9722;SDS011;4900;49.306;8.500;2023-04-07T09:25:19;5.32;;;4.60;;
9722;SDS011;4900;49.306;8.500;2023-04-07T09:27:57;4.05;;;3.60;;
9722;SDS011;4900;49.306;8.500;2023-04-07T09:30:24;4.88;;;3.85;;
9722;SDS011;4900;49.306;8.500;2023-04-07T09:32:50;7.00;;;4.78;;
9722;SDS011;4900;49.306;8.500;2023-04-07T09:35:16;4.93;;;4.25;;
9722;SDS011;4900;49.306;8.500;2023-04-07T09:37:41;4.70;;;3.60;;
9722;SDS011;4900;49.306;8.500;2023-04-07T09:40:07;5.55;;;4.60;;
9722;SDS011;4900;49.306;8.500;2023-04-07T09:42:33;3.78;;;3.42;;
9722;SDS011;4900;49.306;8.500;2023-04-07T09:45:02;5.20;;;4.70;;
9722;SDS011;4900;49.306;8.500;2023-04-07T09:47:28;4.82;;;3.97;;
9722;SDS011;4900;49.306;8.500;2023-04-07T09:49:55;6.38;;;3.40;;
9722;SDS011;4900;49.306;8.500;2023-04-07T09:52:24;4.30;;;3.28;;
9722;SDS011;4900;49.306;8.500;2023-04-07T09:55:11;4.88;;;4.15;;
9722;SDS011;4900;49.306;8.500;2023-04-07T09:57:37;5.97;;;4.90;;
9722;SDS011;4900;49.306;8.500;2023-04-07T10:00:03;5.05;;;4.47;;
9722;SDS011;4900;49.306;8.500;2023-04-07T10:02:30;6.00;;;4.63;;
9722;SDS011;4900;49.306;8.500;2023-04-07T10:04:56;5.82;;;4.20;;
9722;SDS011;4900;49.306;8.500;2023-04-07T10:07:23;5.43;;;4.45;;
9722;SDS011;4900;49.306;8.500;2023-04-07T10:09:49;6.30;;;4.85;;
9722;SDS011;4900;49.306;8.500;2023-04-07T10:12:15;6.72;;;4.38;;
9722;SDS011;4900;49.306;8.500;2023-04-07T10:14:42;5.43;;;4.50;;
9722;SDS011;4900;49.306;8.500;2023-04-07T10:17:11;6.20;;;4.30;;
9722;SDS011;4900;49.306;8.500;2023-04-07T10:19:42;4.70;;;4.20;;
9722;SDS011;4900;49.306;8.500;2023-04-07T10:22:08;5.43;;;3.80;;
9722;SDS011;4900;49.306;8.500;2023-04-07T10:24:48;6.95;;;3.95;;
9722;SDS011;4900;49.306;8.500;2023-04-07T10:27:38;4.47;;;3.58;;
9722;SDS011;4900;49.306;8.500;2023-04-07T10:30:14;5.88;;;4.15;;
9722;SDS011;4900;49.306;8.500;2023-04-07T10:32:48;4.53;;;3.58;;
9722;SDS011;4900;49.306;8.500;2023-04-07T10:35:14;5.85;;;4.70;;
9722;SDS011;4900;49.306;8.500;2023-04-07T10:37:43;9.20;;;5.60;;
9722;SDS011;4900;49.306;8.500;2023-04-07T10:40:32;7.80;;;5.55;;
9722;SDS011;4900;49.306;8.500;2023-04-07T10:42:58;6.45;;;3.97;;
9722;SDS011;4900;49.306;8.500;2023-04-07T10:48:13;5.47;;;3.63;;
9722;SDS011;4900;49.306;8.500;2023-04-07T10:50:39;6.22;;;3.60;;
9722;SDS011;4900;49.306;8.500;2023-04-07T10:53:07;4.00;;;3.10;;
9722;SDS011;4900;49.306;8.500;2023-04-07T11:00:39;5.90;;;3.30;;
9722;SDS011;4900;49.306;8.500;2023-04-07T11:03:09;5.22;;;4.50;;
9722;SDS011;4900;49.306;8.500;2023-04-07T11:05:37;4.85;;;4.35;;
9722;SDS011;4900;49.306;8.500;2023-04-07T11:08:04;5.68;;;4.32;;
9722;SDS011;4900;49.306;8.500;2023-04-07T11:10:31;4.40;;;3.60;;
9722;SDS011;4900;49.306;8.500;2023-04-07T11:12:57;3.92;;;3.38;;
9722;SDS011;4900;49.306;8.500;2023-04-07T11:15:27;4.88;;;3.20;;
9722;SDS011;4900;49.306;8.500;2023-04-07T11:18:05;4.07;;;3.30;;
9722;SDS011;4900;49.306;8.500;2023-04-07T11:20:55;3.17;;;2.88;;
9722;SDS011;4900;49.306;8.500;2023-04-07T11:23:24;4.03;;;2.40;;
9722;SDS011;4900;49.306;8.500;2023-04-07T11:25:51;2.67;;;2.15;;
9722;SDS011;4900;49.306;8.500;2023-04-07T11:28:18;1.98;;;1.80;;
9722;SDS011;4900;49.306;8.500;2023-04-07T11:30:47;2.28;;;2.08;;
9722;SDS011;4900;49.306;8.500;2023-04-07T11:33:16;1.98;;;1.88;;
9722;SDS011;4900;49.306;8.500;2023-04-07T11:35:56;2.15;;;1.95;;
9722;SDS011;4900;49.306;8.500;2023-04-07T11:38:26;2.10;;;1.90;;
9722;SDS011;4900;49.306;8.500;2023-04-07T11:40:54;2.50;;;2.30;;
9722;SDS011;4900;49.306;8.500;2023-04-07T11:43:25;2.72;;;2.45;;
9722;SDS011;4900;49.306;8.500;2023-04-07T11:46:11;2.55;;;2.30;;
9722;SDS011;4900;49.306;8.500;2023-04-07T11:48:38;3.22;;;2.45;;
9722;SDS011;4900;49.306;8.500;2023-04-07T11:51:05;2.30;;;2.10;;
9722;SDS011;4900;49.306;8.500;2023-04-07T11:53:39;2.95;;;2.03;;
9722;SDS011;4900;49.306;8.500;2023-04-07T11:56:05;2.45;;;1.85;;
9722;SDS011;4900;49.306;8.500;2023-04-07T11:58:34;2.38;;;1.90;;
9722;SDS011;4900;49.306;8.500;2023-04-07T12:01:02;2.00;;;1.77;;
9722;SDS011;4900;49.306;8.500;2023-04-07T12:03:30;2.72;;;1.60;;
9722;SDS011;4900;49.306;8.500;2023-04-07T12:05:56;1.50;;;1.40;;
9722;SDS011;4900;49.306;8.500;2023-04-07T12:08:35;2.10;;;1.90;;
9722;SDS011;4900;49.306;8.500;2023-04-07T12:11:02;1.90;;;1.80;;
9722;SDS011;4900;49.306;8.500;2023-04-07T12:13:29;1.83;;;1.70;;
9722;SDS011;4900;49.306;8.500;2023-04-07T12:15:55;1.80;;;1.70;;
9722;SDS011;4900;49.306;8.500;2023-04-07T12:18:22;2.30;;;2.08;;
9722;SDS011;4900;49.306;8.500;2023-04-07T12:20:49;2.47;;;2.28;;
9722;SDS011;4900;49.306;8.500;2023-04-07T12:23:14;2.40;;;2.20;;
9722;SDS011;4900;49.306;8.500;2023-04-07T12:25:40;2.25;;;2.05;;
9722;SDS011;4900;49.306;8.500;2023-04-07T12:28:06;2.55;;;2.25;;
9722;SDS011;4900;49.306;8.500;2023-04-07T12:30:31;2.63;;;2.42;;
9722;SDS011;4900;49.306;8.500;2023-04-07T12:32:57;1.95;;;1.75;;
9722;SDS011;4900;49.306;8.500;2023-04-07T12:35:22;3.00;;;2.28;;
9722;SDS011;4900;49.306;8.500;2023-04-07T12:37:48;2.50;;;2.30;;
9722;SDS011;4900;49.306;8.500;2023-04-07T12:40:13;2.25;;;2.05;;
9722;SDS011;4900;49.306;8.500;2023-04-07T12:42:40;2.30;;;2.08;;
9722;SDS011;4900;49.306;8.500;2023-04-07T12:45:06;2.20;;;1.98;;
9722;SDS011;4900;49.306;8.500;2023-04-07T12:47:32;2.13;;;1.80;;
9722;SDS011;4900;49.306;8.500;2023-04-07T12:49:58;2.30;;;2.10;;
9722;SDS011;4900;49.306;8.500;2023-04-07T12:52:23;1.80;;;1.70;;
9722;SDS011;4900;49.306;8.500;2023-04-07T12:54:49;2.13;;;1.80;;
9722;SDS011;4900;49.306;8.500;2023-04-07T12:57:14;1.42;;;1.33;;
9722;SDS011;4900;49.306;8.500;2023-04-07T12:59:40;2.40;;;1.55;;
9722;SDS011;4900;49.306;8.500;2023-04-07T13:02:05;1.70;;;1.60;;
9722;SDS011;4900;49.306;8.500;2023-04-07T13:04:32;1.73;;;1.63;;
9722;SDS011;4900;49.306;8.500;2023-04-07T13:06:58;2.03;;;1.83;;
9722;SDS011;4900;49.306;8.500;2023-04-07T13:09:26;2.13;;;1.92;;
9722;SDS011;4900;49.306;8.500;2023-04-07T13:11:52;1.80;;;1.70;;
9722;SDS011;4900;49.306;8.500;2023-04-07T13:14:17;2.03;;;1.70;;
9722;SDS011;4900;49.306;8.500;2023-04-07T13:16:43;2.20;;;2.00;;
9722;SDS011;4900;49.306;8.500;2023-04-07T13:19:08;1.80;;;1.70;;
9722;SDS011;4900;49.306;8.500;2023-04-07T13:21:34;2.45;;;2.25;;
9722;SDS011;4900;49.306;8.500;2023-04-07T13:24:00;2.80;;;2.60;;
9722;SDS011;4900;49.306;8.500;2023-04-07T13:26:26;2.70;;;2.50;;
9722;SDS011;4900;49.306;8.500;2023-04-07T13:28:52;2.72;;;2.53;;
9722;SDS011;4900;49.306;8.500;2023-04-07T13:31:18;2.53;;;2.33;;
9722;SDS011;4900;49.306;8.500;2023-04-07T13:33:45;2.70;;;2.50;;
9722;SDS011;4900;49.306;8.500;2023-04-07T13:36:11;2.33;;;2.13;;
9722;SDS011;4900;49.306;8.500;2023-04-07T13:38:36;2.58;;;2.38;;
9722;SDS011;4900;49.306;8.500;2023-04-07T13:41:02;2.47;;;2.28;;
9722;SDS011;4900;49.306;8.500;2023-04-07T13:43:28;2.50;;;2.30;;
9722;SDS011;4900;49.306;8.500;2023-04-07T13:45:53;2.13;;;2.00;;
9722;SDS011;4900;49.306;8.500;2023-04-07T13:48:20;2.53;;;2.33;;
9722;SDS011;4900;49.306;8.500;2023-04-07T13:50:45;2.80;;;2.60;;
9722;SDS011;4900;49.306;8.500;2023-04-07T13:53:11;2.22;;;2.03;;
9722;SDS011;4900;49.306;8.500;2023-04-07T13:55:37;2.50;;;2.30;;
9722;SDS011;4900;49.306;8.500;2023-04-07T13:58:04;2.38;;;2.17;;
9722;SDS011;4900;49.306;8.500;2023-04-07T14:00:29;2.30;;;2.10;;
9722;SDS011;4900;49.306;8.500;2023-04-07T14:02:55;2.50;;;2.30;;
9722;SDS011;4900;49.306;8.500;2023-04-07T14:05:20;2.50;;;2.30;;
9722;SDS011;4900;49.306;8.500;2023-04-07T14:07:46;2.28;;;2.03;;
9722;SDS011;4900;49.306;8.500;2023-04-07T14:10:11;2.30;;;2.10;;
9722;SDS011;4900;49.306;8.500;2023-04-07T14:12:37;2.47;;;2.28;;
9722;SDS011;4900;49.306;8.500;2023-04-07T14:15:02;2.58;;;2.38;;
9722;SDS011;4900;49.306;8.500;2023-04-07T14:17:28;2.58;;;2.38;;
9722;SDS011;4900;49.306;8.500;2023-04-07T14:19:54;2.45;;;2.25;;
9722;SDS011;4900;49.306;8.500;2023-04-07T14:22:19;2.50;;;2.30;;
9722;SDS011;4900;49.306;8.500;2023-04-07T14:24:45;2.00;;;1.90;;
9722;SDS011;4900;49.306;8.500;2023-04-07T14:27:10;2.60;;;2.40;;
9722;SDS011;4900;49.306;8.500;2023-04-07T14:29:36;2.40;;;2.20;;
9722;SDS011;4900;49.306;8.500;2023-04-07T14:32:01;2.20;;;2.00;;
9722;SDS011;4900;49.306;8.500;2023-04-07T14:34:27;2.58;;;2.38;;
9722;SDS011;4900;49.306;8.500;2023-04-07T14:36:53;2.92;;;2.72;;
9722;SDS011;4900;49.306;8.500;2023-04-07T14:39:20;2.67;;;2.47;;
9722;SDS011;4900;49.306;8.500;2023-04-07T14:41:47;3.40;;;3.10;;
9722;SDS011;4900;49.306;8.500;2023-04-07T14:44:12;3.40;;;3.10;;
9722;SDS011;4900;49.306;8.500;2023-04-07T14:46:38;3.88;;;3.33;;
9722;SDS011;4900;49.306;8.500;2023-04-07T14:49:03;3.65;;;2.97;;
9722;SDS011;4900;49.306;8.500;2023-04-07T14:51:29;3.85;;;3.15;;
9722;SDS011;4900;49.306;8.500;2023-04-07T14:53:55;3.47;;;3.17;;
9722;SDS011;4900;49.306;8.500;2023-04-07T14:56:22;3.75;;;3.45;;
9722;SDS011;4900;49.306;8.500;2023-04-07T14:58:49;3.20;;;2.90;;
9722;SDS011;4900;49.306;8.500;2023-04-07T15:01:15;3.00;;;2.70;;
9722;SDS011;4900;49.306;8.500;2023-04-07T15:03:41;2.60;;;2.40;;
9722;SDS011;4900;49.306;8.500;2023-04-07T15:06:10;2.97;;;2.67;;
9722;SDS011;4900;49.306;8.500;2023-04-07T15:08:38;3.50;;;3.20;;
9722;SDS011;4900;49.306;8.500;2023-04-07T15:11:05;3.35;;;3.05;;
9722;SDS011;4900;49.306;8.500;2023-04-07T15:13:33;3.63;;;3.33;;
9722;SDS011;4900;49.306;8.500;2023-04-07T15:18:32;3.80;;;3.50;;
9722;SDS011;4900;49.306;8.500;2023-04-07T15:20:58;4.10;;;3.70;;
9722;SDS011;4900;49.306;8.500;2023-04-07T15:23:23;3.65;;;3.22;;